sensor_id;sensor_type;location;lat;lon;timestamp;P1;durP1;ratioP1;P2;durP2;ratioP2
65998;SDS011;52766;56.008;37.440;2023-01-13T00:02:05;12.57;;;5.07;;
65998;SDS011;52766;56.008;37.440;2023-01-13T00:04:37;11.63;;;4.03;;
65998;SDS011;52766;56.008;37.440;2023-01-13T00:07:03;8.93;;;3.67;;
65998;SDS011;52766;56.008;37.440;2023-01-13T00:09:29;12.55;;;5.32;;
65998;SDS011;52766;56.008;37.440;2023-01-13T00:11:58;10.23;;;4.93;;
65998;SDS011;52766;56.008;37.440;2023-01-13T00:14:24;10.50;;;4.25;;
65998;SDS011;52766;56.008;37.440;2023-01-13T00:16:57;8.98;;;4.47;;
65998;SDS011;52766;56.008;37.440;2023-01-13T00:19:23;9.18;;;5.22;;
65998;SDS011;52766;56.008;37.440;2023-01-13T00:21:50;11.93;;;4.35;;
65998;SDS011;52766;56.008;37.440;2023-01-13T00:24:16;7.85;;;4.22;;
65998;SDS011;52766;56.008;37.440;2023-01-13T00:27:08;8.52;;;4.07;;
65998;SDS011;52766;56.008;37.440;2023-01-13T00:29:36;10.02;;;5.07;;
65998;SDS011;52766;56.008;37.440;2023-01-13T00:32:02;8.10;;;4.57;;
65998;SDS011;52766;56.008;37.440;2023-01-13T00:34:28;14.55;;;4.68;;
65998;SDS011;52766;56.008;37.440;2023-01-13T00:36:54;11.45;;;4.57;;
65998;SDS011;52766;56.008;37.440;2023-01-13T00:39:28;7.57;;;4.00;;
65998;SDS011;52766;56.008;37.440;2023-01-13T00:41:54;11.13;;;4.90;;
65998;SDS011;52766;56.008;37.440;2023-01-13T00:44:48;12.82;;;4.60;;
65998;SDS011;52766;56.008;37.440;2023-01-13T00:47:14;12.23;;;4.95;;
65998;SDS011;52766;56.008;37.440;2023-01-13T00:49:40;11.77;;;5.13;;
65998;SDS011;52766;56.008;37.440;2023-01-13T00:52:08;9.48;;;4.22;;
65998;SDS011;52766;56.008;37.440;2023-01-13T00:54:38;9.88;;;3.83;;
65998;SDS011;52766;56.008;37.440;2023-01-13T00:57:04;10.02;;;4.80;;
65998;SDS011;52766;56.008;37.440;2023-01-13T00:59:30;8.98;;;4.22;;
65998;SDS011;52766;56.008;37.440;2023-01-13T01:01:56;9.05;;;4.07;;
65998;SDS011;52766;56.008;37.440;2023-01-13T01:04:23;8.02;;;3.92;;
65998;SDS011;52766;56.008;37.440;2023-01-13T01:06:52;10.77;;;5.03;;
65998;SDS011;52766;56.008;37.440;2023-01-13T01:09:38;14.13;;;5.22;;
65998;SDS011;52766;56.008;37.440;2023-01-13T01:12:04;9.75;;;3.95;;
65998;SDS011;52766;56.008;37.440;2023-01-13T01:14:31;14.70;;;4.97;;
65998;SDS011;52766;56.008;37.440;2023-01-13T01:17:05;8.35;;;4.40;;
65998;SDS011;52766;56.008;37.440;2023-01-13T01:19:31;12.70;;;4.70;;
65998;SDS011;52766;56.008;37.440;2023-01-13T01:22:06;11.23;;;3.53;;
65998;SDS011;52766;56.008;37.440;2023-01-13T01:24:32;8.73;;;4.28;;
65998;SDS011;52766;56.008;37.440;2023-01-13T01:26:58;9.88;;;4.13;;
65998;SDS011;52766;56.008;37.440;2023-01-13T01:29:24;8.85;;;3.67;;
65998;SDS011;52766;56.008;37.440;2023-01-13T01:31:50;8.93;;;4.10;;
65998;SDS011;52766;56.008;37.440;2023-01-13T01:34:20;10.43;;;3.83;;
65998;SDS011;52766;56.008;37.440;2023-01-13T01:36:46;9.52;;;4.00;;
65998;SDS011;52766;56.008;37.440;2023-01-13T01:39:12;8.02;;;3.85;;
65998;SDS011;52766;56.008;37.440;2023-01-13T01:41:41;8.45;;;4.13;;
65998;SDS011;52766;56.008;37.440;2023-01-13T01:47:21;11.27;;;4.07;;
65998;SDS011;52766;56.008;37.440;2023-01-13T01:49:49;8.88;;;3.42;;
65998;SDS011;52766;56.008;37.440;2023-01-13T01:52:38;7.47;;;4.03;;
65998;SDS011;52766;56.008;37.440;2023-01-13T01:55:15;10.73;;;4.60;;
65998;SDS011;52766;56.008;37.440;2023-01-13T01:58:01;9.80;;;4.95;;
65998;SDS011;52766;56.008;37.440;2023-01-13T02:00:32;6.63;;;2.88;;
65998;SDS011;52766;56.008;37.440;2023-01-13T02:02:58;9.52;;;3.72;;
65998;SDS011;52766;56.008;37.440;2023-01-13T02:05:26;9.82;;;4.10;;
65998;SDS011;52766;56.008;37.440;2023-01-13T02:07:55;8.93;;;3.97;;
65998;SDS011;52766;56.008;37.440;2023-01-13T02:10:23;9.43;;;3.75;;
65998;SDS011;52766;56.008;37.440;2023-01-13T02:12:54;8.70;;;4.85;;
65998;SDS011;52766;56.008;37.440;2023-01-13T02:15:45;5.80;;;3.22;;
65998;SDS011;52766;56.008;37.440;2023-01-13T02:18:34;7.60;;;3.88;;
65998;SDS011;52766;56.008;37.440;2023-01-13T02:32:33;11.15;;;3.90;;
65998;SDS011;52766;56.008;37.440;2023-01-13T02:38:26;9.60;;;4.00;;
65998;SDS011;52766;56.008;37.440;2023-01-13T02:41:23;8.05;;;3.83;;
65998;SDS011;52766;56.008;37.440;2023-01-13T02:44:19;11.30;;;3.90;;
65998;SDS011;52766;56.008;37.440;2023-01-13T02:47:03;10.32;;;3.88;;
65998;SDS011;52766;56.008;37.440;2023-01-13T02:49:48;5.28;;;2.83;;
65998;SDS011;52766;56.008;37.440;2023-01-13T02:54:49;7.53;;;3.38;;
65998;SDS011;52766;56.008;37.440;2023-01-13T02:57:19;7.60;;;2.90;;
65998;SDS011;52766;56.008;37.440;2023-01-13T02:59:45;11.60;;;4.93;;
65998;SDS011;52766;56.008;37.440;2023-01-13T03:02:12;7.60;;;4.00;;
65998;SDS011;52766;56.008;37.440;2023-01-13T03:04:51;11.18;;;4.35;;
65998;SDS011;52766;56.008;37.440;2023-01-13T03:21:46;8.35;;;3.97;;
65998;SDS011;52766;56.008;37.440;2023-01-13T03:29:28;7.57;;;3.40;;
65998;SDS011;52766;56.008;37.440;2023-01-13T03:32:05;8.60;;;3.95;;
65998;SDS011;52766;56.008;37.440;2023-01-13T03:38:11;7.25;;;3.45;;
65998;SDS011;52766;56.008;37.440;2023-01-13T03:41:15;9.23;;;4.65;;
65998;SDS011;52766;56.008;37.440;2023-01-13T03:43:45;9.23;;;4.32;;
65998;SDS011;52766;56.008;37.440;2023-01-13T03:46:35;8.70;;;4.22;;
65998;SDS011;52766;56.008;37.440;2023-01-13T03:49:09;14.77;;;4.72;;
65998;SDS011;52766;56.008;37.440;2023-01-13T03:51:42;6.80;;;3.47;;
65998;SDS011;52766;56.008;37.440;2023-01-13T03:54:12;9.15;;;3.83;;
65998;SDS011;52766;56.008;37.440;2023-01-13T03:56:46;8.77;;;4.40;;
65998;SDS011;52766;56.008;37.440;2023-01-13T03:59:22;12.32;;;4.80;;
65998;SDS011;52766;56.008;37.440;2023-01-13T04:01:55;9.80;;;4.22;;
65998;SDS011;52766;56.008;37.440;2023-01-13T04:04:25;8.23;;;3.38;;
65998;SDS011;52766;56.008;37.440;2023-01-13T04:09:58;9.18;;;4.35;;
65998;SDS011;52766;56.008;37.440;2023-01-13T04:13:01;9.43;;;3.97;;
65998;SDS011;52766;56.008;37.440;2023-01-13T04:15:38;8.77;;;4.63;;
65998;SDS011;52766;56.008;37.440;2023-01-13T04:18:22;9.43;;;4.32;;
65998;SDS011;52766;56.008;37.440;2023-01-13T04:23:32;9.27;;;4.30;;
65998;SDS011;52766;56.008;37.440;2023-01-13T04:28:42;10.20;;;3.63;;
65998;SDS011;52766;56.008;37.440;2023-01-13T04:31:21;7.40;;;3.88;;
65998;SDS011;52766;56.008;37.440;2023-01-13T04:33:50;7.35;;;4.18;;
65998;SDS011;52766;56.008;37.440;2023-01-13T04:36:17;7.70;;;2.83;;
65998;SDS011;52766;56.008;37.440;2023-01-13T04:38:49;7.43;;;3.60;;
65998;SDS011;52766;56.008;37.440;2023-01-13T04:41:15;9.60;;;4.03;;
65998;SDS011;52766;56.008;37.440;2023-01-13T04:43:40;9.40;;;4.10;;
65998;SDS011;52766;56.008;37.440;2023-01-13T04:46:08;10.95;;;4.45;;
65998;SDS011;52766;56.008;37.440;2023-01-13T04:48:36;14.88;;;6.45;;
65998;SDS011;52766;56.008;37.440;2023-01-13T04:51:02;10.15;;;4.78;;
65998;SDS011;52766;56.008;37.440;2023-01-13T04:53:29;11.63;;;4.47;;
65998;SDS011;52766;56.008;37.440;2023-01-13T04:55:56;11.27;;;5.05;;
65998;SDS011;52766;56.008;37.440;2023-01-13T04:58:26;8.05;;;4.25;;
65998;SDS011;52766;56.008;37.440;2023-01-13T05:00:52;10.48;;;4.72;;
65998;SDS011;52766;56.008;37.440;2023-01-13T05:03:19;9.63;;;4.43;;
65998;SDS011;52766;56.008;37.440;2023-01-13T05:05:51;10.98;;;4.95;;
65998;SDS011;52766;56.008;37.440;2023-01-13T05:08:23;8.32;;;4.10;;
65998;SDS011;52766;56.008;37.440;2023-01-13T05:10:51;8.75;;;4.13;;
65998;SDS011;52766;56.008;37.440;2023-01-13T05:13:41;12.52;;;4.22;;
65998;SDS011;52766;56.008;37.440;2023-01-13T05:16:27;11.82;;;4.88;;
65998;SDS011;52766;56.008;37.440;2023-01-13T05:19:12;6.53;;;3.60;;
65998;SDS011;52766;56.008;37.440;2023-01-13T05:21:46;8.18;;;3.72;;
65998;SDS011;52766;56.008;37.440;2023-01-13T05:24:36;8.98;;;3.63;;
65998;SDS011;52766;56.008;37.440;2023-01-13T05:27:23;6.28;;;3.35;;
65998;SDS011;52766;56.008;37.440;2023-01-13T05:29:49;9.27;;;4.53;;
65998;SDS011;52766;56.008;37.440;2023-01-13T05:32:22;9.25;;;4.18;;
65998;SDS011;52766;56.008;37.440;2023-01-13T05:34:50;8.02;;;3.60;;
65998;SDS011;52766;56.008;37.440;2023-01-13T05:37:21;6.57;;;3.05;;
65998;SDS011;52766;56.008;37.440;2023-01-13T05:39:47;9.05;;;3.63;;
65998;SDS011;52766;56.008;37.440;2023-01-13T05:42:32;9.02;;;4.18;;
65998;SDS011;52766;56.008;37.440;2023-01-13T05:45:17;7.60;;;4.00;;
65998;SDS011;52766;56.008;37.440;2023-01-13T05:47:42;14.23;;;4.75;;
65998;SDS011;52766;56.008;37.440;2023-01-13T05:50:09;9.32;;;3.85;;
65998;SDS011;52766;56.008;37.440;2023-01-13T05:52:35;6.53;;;3.22;;
65998;SDS011;52766;56.008;37.440;2023-01-13T05:55:02;6.63;;;3.38;;
65998;SDS011;52766;56.008;37.440;2023-01-13T05:57:28;11.80;;;3.78;;
65998;SDS011;52766;56.008;37.440;2023-01-13T05:59:54;8.85;;;4.32;;
65998;SDS011;52766;56.008;37.440;2023-01-13T06:02:20;6.72;;;3.58;;
65998;SDS011;52766;56.008;37.440;2023-01-13T06:04:46;6.80;;;3.33;;
65998;SDS011;52766;56.008;37.440;2023-01-13T06:07:14;8.02;;;3.78;;
65998;SDS011;52766;56.008;37.440;2023-01-13T06:09:40;7.65;;;3.42;;
65998;SDS011;52766;56.008;37.440;2023-01-13T06:12:10;9.77;;;3.83;;
65998;SDS011;52766;56.008;37.440;2023-01-13T06:14:37;7.90;;;3.83;;
65998;SDS011;52766;56.008;37.440;2023-01-13T06:17:10;9.30;;;3.63;;
65998;SDS011;52766;56.008;37.440;2023-01-13T06:19:40;10.18;;;3.97;;
65998;SDS011;52766;56.008;37.440;2023-01-13T06:22:10;8.60;;;3.55;;
65998;SDS011;52766;56.008;37.440;2023-01-13T06:24:38;6.70;;;3.22;;
65998;SDS011;52766;56.008;37.440;2023-01-13T06:27:04;8.30;;;3.90;;
65998;SDS011;52766;56.008;37.440;2023-01-13T06:29:33;8.38;;;3.83;;
65998;SDS011;52766;56.008;37.440;2023-01-13T06:32:04;9.13;;;4.22;;
65998;SDS011;52766;56.008;37.440;2023-01-13T06:34:33;13.98;;;4.28;;
65998;SDS011;52766;56.008;37.440;2023-01-13T06:37:00;8.57;;;3.80;;
65998;SDS011;52766;56.008;37.440;2023-01-13T06:39:27;14.20;;;4.53;;
65998;SDS011;52766;56.008;37.440;2023-01-13T06:41:58;8.82;;;4.22;;
65998;SDS011;52766;56.008;37.440;2023-01-13T06:44:43;8.13;;;3.72;;
65998;SDS011;52766;56.008;37.440;2023-01-13T06:47:10;9.15;;;4.55;;
65998;SDS011;52766;56.008;37.440;2023-01-13T06:49:39;7.90;;;3.88;;
65998;SDS011;52766;56.008;37.440;2023-01-13T06:52:05;8.45;;;3.90;;
65998;SDS011;52766;56.008;37.440;2023-01-13T06:54:35;12.20;;;4.45;;
65998;SDS011;52766;56.008;37.440;2023-01-13T06:57:01;7.22;;;3.83;;
65998;SDS011;52766;56.008;37.440;2023-01-13T06:59:27;10.73;;;4.65;;
65998;SDS011;52766;56.008;37.440;2023-01-13T07:01:53;6.45;;;3.38;;
65998;SDS011;52766;56.008;37.440;2023-01-13T07:04:19;8.30;;;4.35;;
65998;SDS011;52766;56.008;37.440;2023-01-13T07:06:45;6.43;;;3.17;;
65998;SDS011;52766;56.008;37.440;2023-01-13T07:09:12;10.30;;;4.22;;
65998;SDS011;52766;56.008;37.440;2023-01-13T07:11:38;5.90;;;2.78;;
65998;SDS011;52766;56.008;37.440;2023-01-13T07:14:04;10.68;;;4.30;;
65998;SDS011;52766;56.008;37.440;2023-01-13T07:16:50;29.73;;;17.42;;
65998;SDS011;52766;56.008;37.440;2023-01-13T07:19:17;11.07;;;5.22;;
65998;SDS011;52766;56.008;37.440;2023-01-13T07:21:51;13.88;;;6.80;;
65998;SDS011;52766;56.008;37.440;2023-01-13T07:24:17;8.07;;;4.45;;
65998;SDS011;52766;56.008;37.440;2023-01-13T07:26:44;11.43;;;5.00;;
65998;SDS011;52766;56.008;37.440;2023-01-13T07:29:10;12.43;;;4.90;;
65998;SDS011;52766;56.008;37.440;2023-01-13T07:31:37;11.50;;;4.78;;
65998;SDS011;52766;56.008;37.440;2023-01-13T07:34:04;11.43;;;5.43;;
65998;SDS011;52766;56.008;37.440;2023-01-13T07:36:32;9.95;;;4.43;;
65998;SDS011;52766;56.008;37.440;2023-01-13T07:38:58;10.00;;;3.88;;
65998;SDS011;52766;56.008;37.440;2023-01-13T07:41:24;13.90;;;5.13;;
65998;SDS011;52766;56.008;37.440;2023-01-13T07:44:10;9.45;;;4.15;;
65998;SDS011;52766;56.008;37.440;2023-01-13T07:46:37;9.32;;;4.38;;
65998;SDS011;52766;56.008;37.440;2023-01-13T07:49:04;8.75;;;4.03;;
65998;SDS011;52766;56.008;37.440;2023-01-13T07:51:37;7.50;;;3.28;;
65998;SDS011;52766;56.008;37.440;2023-01-13T07:54:06;8.63;;;4.20;;
65998;SDS011;52766;56.008;37.440;2023-01-13T07:56:33;11.95;;;4.90;;
65998;SDS011;52766;56.008;37.440;2023-01-13T07:59:00;11.32;;;3.45;;
65998;SDS011;52766;56.008;37.440;2023-01-13T08:01:27;9.80;;;4.05;;
65998;SDS011;52766;56.008;37.440;2023-01-13T08:03:54;13.13;;;5.57;;
65998;SDS011;52766;56.008;37.440;2023-01-13T08:06:22;9.75;;;4.03;;
65998;SDS011;52766;56.008;37.440;2023-01-13T08:08:57;10.20;;;4.00;;
65998;SDS011;52766;56.008;37.440;2023-01-13T08:13:57;8.85;;;4.97;;
65998;SDS011;52766;56.008;37.440;2023-01-13T08:16:24;8.30;;;3.83;;
65998;SDS011;52766;56.008;37.440;2023-01-13T08:18:54;11.00;;;4.80;;
65998;SDS011;52766;56.008;37.440;2023-01-13T08:21:24;11.50;;;4.43;;
65998;SDS011;52766;56.008;37.440;2023-01-13T08:23:52;12.75;;;4.50;;
65998;SDS011;52766;56.008;37.440;2023-01-13T08:26:21;11.23;;;4.95;;
65998;SDS011;52766;56.008;37.440;2023-01-13T08:28:52;15.15;;;4.68;;
65998;SDS011;52766;56.008;37.440;2023-01-13T08:31:22;11.15;;;5.07;;
65998;SDS011;52766;56.008;37.440;2023-01-13T08:34:07;11.70;;;4.80;;
65998;SDS011;52766;56.008;37.440;2023-01-13T08:36:37;8.60;;;4.55;;
65998;SDS011;52766;56.008;37.440;2023-01-13T08:39:05;8.27;;;4.47;;
65998;SDS011;52766;56.008;37.440;2023-01-13T08:41:32;14.10;;;5.88;;
65998;SDS011;52766;56.008;37.440;2023-01-13T08:44:20;11.60;;;5.68;;
65998;SDS011;52766;56.008;37.440;2023-01-13T08:46:50;11.52;;;5.30;;
65998;SDS011;52766;56.008;37.440;2023-01-13T08:49:24;14.93;;;6.20;;
65998;SDS011;52766;56.008;37.440;2023-01-13T08:51:56;10.10;;;5.47;;
65998;SDS011;52766;56.008;37.440;2023-01-13T08:54:25;10.20;;;4.60;;
65998;SDS011;52766;56.008;37.440;2023-01-13T08:56:54;11.27;;;5.80;;
65998;SDS011;52766;56.008;37.440;2023-01-13T08:59:25;10.77;;;5.55;;
65998;SDS011;52766;56.008;37.440;2023-01-13T09:01:54;12.18;;;5.50;;
65998;SDS011;52766;56.008;37.440;2023-01-13T09:04:26;14.93;;;6.10;;
65998;SDS011;52766;56.008;37.440;2023-01-13T09:06:57;14.70;;;5.05;;
65998;SDS011;52766;56.008;37.440;2023-01-13T09:09:31;11.40;;;5.75;;
65998;SDS011;52766;56.008;37.440;2023-01-13T09:12:00;10.38;;;4.88;;
65998;SDS011;52766;56.008;37.440;2023-01-13T09:15:12;12.63;;;6.00;;
65998;SDS011;52766;56.008;37.440;2023-01-13T09:17:45;12.30;;;4.78;;
65998;SDS011;52766;56.008;37.440;2023-01-13T09:20:14;10.57;;;5.55;;
65998;SDS011;52766;56.008;37.440;2023-01-13T09:22:41;13.45;;;5.97;;
65998;SDS011;52766;56.008;37.440;2023-01-13T09:25:07;12.80;;;5.63;;
65998;SDS011;52766;56.008;37.440;2023-01-13T09:27:38;9.73;;;5.25;;
65998;SDS011;52766;56.008;37.440;2023-01-13T09:30:09;10.55;;;4.90;;
65998;SDS011;52766;56.008;37.440;2023-01-13T09:32:36;13.73;;;6.35;;
65998;SDS011;52766;56.008;37.440;2023-01-13T09:35:04;12.75;;;5.53;;
65998;SDS011;52766;56.008;37.440;2023-01-13T09:37:32;11.38;;;5.50;;
65998;SDS011;52766;56.008;37.440;2023-01-13T09:40:04;13.93;;;6.25;;
65998;SDS011;52766;56.008;37.440;2023-01-13T09:42:46;13.18;;;6.53;;
65998;SDS011;52766;56.008;37.440;2023-01-13T09:45:48;10.50;;;5.15;;
65998;SDS011;52766;56.008;37.440;2023-01-13T09:48:20;12.05;;;5.55;;
65998;SDS011;52766;56.008;37.440;2023-01-13T09:50:59;12.45;;;5.75;;
65998;SDS011;52766;56.008;37.440;2023-01-13T09:53:53;13.30;;;5.45;;
65998;SDS011;52766;56.008;37.440;2023-01-13T09:56:24;12.45;;;5.70;;
65998;SDS011;52766;56.008;37.440;2023-01-13T09:58:50;12.77;;;5.45;;
65998;SDS011;52766;56.008;37.440;2023-01-13T10:04:03;14.45;;;5.55;;
65998;SDS011;52766;56.008;37.440;2023-01-13T10:06:37;13.32;;;6.05;;
65998;SDS011;52766;56.008;37.440;2023-01-13T10:09:26;8.65;;;4.45;;
65998;SDS011;52766;56.008;37.440;2023-01-13T10:12:05;12.65;;;5.20;;
65998;SDS011;52766;56.008;37.440;2023-01-13T10:14:58;15.02;;;6.70;;
65998;SDS011;52766;56.008;37.440;2023-01-13T10:27:05;14.40;;;6.55;;
65998;SDS011;52766;56.008;37.440;2023-01-13T10:30:21;17.33;;;7.38;;
65998;SDS011;52766;56.008;37.440;2023-01-13T10:36:56;14.13;;;6.07;;
65998;SDS011;52766;56.008;37.440;2023-01-13T10:39:44;15.93;;;7.18;;
65998;SDS011;52766;56.008;37.440;2023-01-13T10:42:20;9.73;;;5.07;;
65998;SDS011;52766;56.008;37.440;2023-01-13T10:44:59;14.05;;;6.53;;
65998;SDS011;52766;56.008;37.440;2023-01-13T10:47:39;12.85;;;5.97;;
65998;SDS011;52766;56.008;37.440;2023-01-13T10:52:40;15.77;;;6.40;;
65998;SDS011;52766;56.008;37.440;2023-01-13T10:57:55;15.15;;;6.00;;
65998;SDS011;52766;56.008;37.440;2023-01-13T11:00:40;15.95;;;6.20;;
65998;SDS011;52766;56.008;37.440;2023-01-13T11:03:14;13.95;;;6.80;;
65998;SDS011;52766;56.008;37.440;2023-01-13T11:08:20;15.48;;;7.78;;
65998;SDS011;52766;56.008;37.440;2023-01-13T11:10:53;16.48;;;8.43;;
65998;SDS011;52766;56.008;37.440;2023-01-13T11:16:30;16.60;;;6.78;;
65998;SDS011;52766;56.008;37.440;2023-01-13T11:18:59;10.18;;;6.22;;
65998;SDS011;52766;56.008;37.440;2023-01-13T11:21:42;13.90;;;6.55;;
65998;SDS011;52766;56.008;37.440;2023-01-13T11:29:44;13.23;;;7.30;;
65998;SDS011;52766;56.008;37.440;2023-01-13T11:32:25;10.93;;;5.60;;
65998;SDS011;52766;56.008;37.440;2023-01-13T11:34:58;14.10;;;6.90;;
65998;SDS011;52766;56.008;37.440;2023-01-13T11:37:31;13.52;;;6.72;;
65998;SDS011;52766;56.008;37.440;2023-01-13T11:42:45;16.45;;;7.10;;
65998;SDS011;52766;56.008;37.440;2023-01-13T11:45:19;9.18;;;4.70;;
65998;SDS011;52766;56.008;37.440;2023-01-13T11:47:58;12.27;;;6.13;;
65998;SDS011;52766;56.008;37.440;2023-01-13T11:50:46;13.10;;;6.53;;
65998;SDS011;52766;56.008;37.440;2023-01-13T12:02:54;11.23;;;4.60;;
65998;SDS011;52766;56.008;37.440;2023-01-13T12:08:20;13.63;;;5.18;;
65998;SDS011;52766;56.008;37.440;2023-01-13T12:11:10;13.80;;;5.40;;
65998;SDS011;52766;56.008;37.440;2023-01-13T12:16:34;16.48;;;6.90;;
65998;SDS011;52766;56.008;37.440;2023-01-13T12:19:27;11.63;;;6.25;;
65998;SDS011;52766;56.008;37.440;2023-01-13T12:27:17;11.80;;;5.68;;
65998;SDS011;52766;56.008;37.440;2023-01-13T12:30:16;16.23;;;7.03;;
65998;SDS011;52766;56.008;37.440;2023-01-13T12:32:45;13.32;;;6.32;;
65998;SDS011;52766;56.008;37.440;2023-01-13T12:38:07;16.60;;;6.57;;
65998;SDS011;52766;56.008;37.440;2023-01-13T12:40:55;13.52;;;6.75;;
65998;SDS011;52766;56.008;37.440;2023-01-13T12:43:49;14.13;;;6.03;;
65998;SDS011;52766;56.008;37.440;2023-01-13T12:46:34;13.70;;;4.95;;
65998;SDS011;52766;56.008;37.440;2023-01-13T12:49:19;16.23;;;7.60;;
65998;SDS011;52766;56.008;37.440;2023-01-13T12:56:56;13.48;;;4.50;;
65998;SDS011;52766;56.008;37.440;2023-01-13T13:01:49;16.38;;;6.95;;
65998;SDS011;52766;56.008;37.440;2023-01-13T13:04:45;13.70;;;5.63;;
65998;SDS011;52766;56.008;37.440;2023-01-13T13:07:17;14.27;;;6.82;;
65998;SDS011;52766;56.008;37.440;2023-01-13T13:09:58;15.23;;;7.07;;
65998;SDS011;52766;56.008;37.440;2023-01-13T13:20:59;17.83;;;7.28;;
65998;SDS011;52766;56.008;37.440;2023-01-13T13:37:45;16.83;;;7.15;;
65998;SDS011;52766;56.008;37.440;2023-01-13T13:40:38;9.95;;;4.95;;
65998;SDS011;52766;56.008;37.440;2023-01-13T13:43:27;15.07;;;6.80;;
65998;SDS011;52766;56.008;37.440;2023-01-13T13:46:48;18.48;;;6.95;;
65998;SDS011;52766;56.008;37.440;2023-01-13T13:49:21;13.65;;;6.30;;
65998;SDS011;52766;56.008;37.440;2023-01-13T13:52:13;11.05;;;4.93;;
65998;SDS011;52766;56.008;37.440;2023-01-13T13:55:07;16.20;;;6.05;;
65998;SDS011;52766;56.008;37.440;2023-01-13T13:57:44;17.88;;;6.82;;
65998;SDS011;52766;56.008;37.440;2023-01-13T14:02:57;19.67;;;6.30;;
65998;SDS011;52766;56.008;37.440;2023-01-13T14:10:31;13.48;;;6.05;;
65998;SDS011;52766;56.008;37.440;2023-01-13T14:15:55;12.07;;;5.65;;
65998;SDS011;52766;56.008;37.440;2023-01-13T14:18:22;19.25;;;7.10;;
65998;SDS011;52766;56.008;37.440;2023-01-13T14:23:18;18.80;;;7.05;;
65998;SDS011;52766;56.008;37.440;2023-01-13T14:25:49;13.10;;;5.35;;
65998;SDS011;52766;56.008;37.440;2023-01-13T14:28:29;15.70;;;6.32;;
65998;SDS011;52766;56.008;37.440;2023-01-13T14:30:59;15.27;;;6.35;;
65998;SDS011;52766;56.008;37.440;2023-01-13T14:33:39;14.82;;;7.13;;
65998;SDS011;52766;56.008;37.440;2023-01-13T14:36:15;17.10;;;6.50;;
65998;SDS011;52766;56.008;37.440;2023-01-13T14:38:45;17.02;;;6.95;;
65998;SDS011;52766;56.008;37.440;2023-01-13T14:41:17;17.80;;;6.75;;
65998;SDS011;52766;56.008;37.440;2023-01-13T14:43:44;16.70;;;6.70;;
65998;SDS011;52766;56.008;37.440;2023-01-13T14:46:11;20.63;;;7.18;;
65998;SDS011;52766;56.008;37.440;2023-01-13T14:48:38;11.27;;;5.25;;
65998;SDS011;52766;56.008;37.440;2023-01-13T14:57:45;10.05;;;4.70;;
65998;SDS011;52766;56.008;37.440;2023-01-13T15:00:22;14.73;;;4.63;;
65998;SDS011;52766;56.008;37.440;2023-01-13T15:05:36;14.38;;;6.43;;
65998;SDS011;52766;56.008;37.440;2023-01-13T15:11:33;18.23;;;8.13;;
65998;SDS011;52766;56.008;37.440;2023-01-13T15:14:31;17.13;;;7.28;;
65998;SDS011;52766;56.008;37.440;2023-01-13T15:17:17;19.17;;;7.45;;
65998;SDS011;52766;56.008;37.440;2023-01-13T15:19:54;20.88;;;7.75;;
65998;SDS011;52766;56.008;37.440;2023-01-13T15:22:20;17.30;;;6.93;;
65998;SDS011;52766;56.008;37.440;2023-01-13T15:24:47;20.70;;;7.95;;
65998;SDS011;52766;56.008;37.440;2023-01-13T15:27:20;17.75;;;7.80;;
65998;SDS011;52766;56.008;37.440;2023-01-13T15:29:51;19.35;;;8.25;;
65998;SDS011;52766;56.008;37.440;2023-01-13T15:32:19;15.95;;;8.13;;
65998;SDS011;52766;56.008;37.440;2023-01-13T15:34:48;19.60;;;8.38;;
65998;SDS011;52766;56.008;37.440;2023-01-13T15:37:17;16.77;;;6.90;;
65998;SDS011;52766;56.008;37.440;2023-01-13T15:39:45;19.45;;;7.72;;
65998;SDS011;52766;56.008;37.440;2023-01-13T15:42:13;14.02;;;5.90;;
65998;SDS011;52766;56.008;37.440;2023-01-13T15:45:04;16.33;;;7.93;;
65998;SDS011;52766;56.008;37.440;2023-01-13T15:47:52;18.90;;;7.22;;
65998;SDS011;52766;56.008;37.440;2023-01-13T15:50:33;20.40;;;8.75;;
65998;SDS011;52766;56.008;37.440;2023-01-13T15:53:03;19.98;;;7.10;;
65998;SDS011;52766;56.008;37.440;2023-01-13T15:56:00;17.48;;;7.13;;
65998;SDS011;52766;56.008;37.440;2023-01-13T15:58:36;14.52;;;6.68;;
65998;SDS011;52766;56.008;37.440;2023-01-13T16:01:17;23.55;;;9.68;;
65998;SDS011;52766;56.008;37.440;2023-01-13T16:03:50;20.73;;;8.60;;
65998;SDS011;52766;56.008;37.440;2023-01-13T16:06:23;19.52;;;7.50;;
65998;SDS011;52766;56.008;37.440;2023-01-13T16:08:57;23.33;;;8.25;;
65998;SDS011;52766;56.008;37.440;2023-01-13T16:11:29;23.55;;;8.48;;
65998;SDS011;52766;56.008;37.440;2023-01-13T16:14:29;22.42;;;9.25;;
65998;SDS011;52766;56.008;37.440;2023-01-13T16:17:14;23.92;;;9.00;;
65998;SDS011;52766;56.008;37.440;2023-01-13T16:22:51;24.77;;;8.43;;
65998;SDS011;52766;56.008;37.440;2023-01-13T16:25:23;17.63;;;8.45;;
65998;SDS011;52766;56.008;37.440;2023-01-13T16:30:43;19.77;;;8.50;;
65998;SDS011;52766;56.008;37.440;2023-01-13T16:33:14;27.98;;;10.02;;
65998;SDS011;52766;56.008;37.440;2023-01-13T16:35:49;26.80;;;9.00;;
65998;SDS011;52766;56.008;37.440;2023-01-13T16:38:24;18.95;;;7.60;;
65998;SDS011;52766;56.008;37.440;2023-01-13T16:48:27;21.17;;;8.02;;
65998;SDS011;52766;56.008;37.440;2023-01-13T16:51:50;24.52;;;8.35;;
65998;SDS011;52766;56.008;37.440;2023-01-13T17:01:55;20.08;;;7.13;;
65998;SDS011;52766;56.008;37.440;2023-01-13T17:04:29;21.15;;;7.82;;
65998;SDS011;52766;56.008;37.440;2023-01-13T17:07:16;17.63;;;6.53;;
65998;SDS011;52766;56.008;37.440;2023-01-13T17:09:55;21.02;;;8.50;;
65998;SDS011;52766;56.008;37.440;2023-01-13T17:19:51;26.38;;;9.77;;
65998;SDS011;52766;56.008;37.440;2023-01-13T18:33:45;17.38;;;7.18;;
65998;SDS011;52766;56.008;37.440;2023-01-13T18:44:07;17.98;;;7.10;;
65998;SDS011;52766;56.008;37.440;2023-01-13T18:47:10;21.80;;;8.30;;
65998;SDS011;52766;56.008;37.440;2023-01-13T18:50:24;19.08;;;8.23;;
65998;SDS011;52766;56.008;37.440;2023-01-13T18:56:49;22.15;;;7.55;;
65998;SDS011;52766;56.008;37.440;2023-01-13T19:06:41;25.27;;;8.00;;
65998;SDS011;52766;56.008;37.440;2023-01-13T19:09:29;20.10;;;6.47;;
65998;SDS011;52766;56.008;37.440;2023-01-13T19:16:20;23.50;;;8.43;;
65998;SDS011;52766;56.008;37.440;2023-01-13T19:19:54;21.27;;;7.40;;
65998;SDS011;52766;56.008;37.440;2023-01-13T19:22:28;23.70;;;7.57;;
65998;SDS011;52766;56.008;37.440;2023-01-13T19:25:13;20.38;;;8.05;;
65998;SDS011;52766;56.008;37.440;2023-01-13T19:28:49;20.15;;;8.43;;
65998;SDS011;52766;56.008;37.440;2023-01-13T19:32:50;18.17;;;7.78;;
65998;SDS011;52766;56.008;37.440;2023-01-13T19:38:51;21.40;;;8.43;;
65998;SDS011;52766;56.008;37.440;2023-01-13T19:41:31;21.27;;;8.63;;
65998;SDS011;52766;56.008;37.440;2023-01-13T19:44:26;19.33;;;8.45;;
65998;SDS011;52766;56.008;37.440;2023-01-13T19:48:16;22.63;;;8.30;;
65998;SDS011;52766;56.008;37.440;2023-01-13T20:07:36;25.80;;;9.95;;
65998;SDS011;52766;56.008;37.440;2023-01-13T20:14:24;20.77;;;7.90;;
65998;SDS011;52766;56.008;37.440;2023-01-13T20:23:56;19.42;;;7.88;;
65998;SDS011;52766;56.008;37.440;2023-01-13T20:26:49;27.95;;;8.95;;
65998;SDS011;52766;56.008;37.440;2023-01-13T20:41:03;23.35;;;8.32;;
65998;SDS011;52766;56.008;37.440;2023-01-13T20:48:02;17.15;;;6.45;;
65998;SDS011;52766;56.008;37.440;2023-01-13T20:58:28;18.67;;;7.25;;
65998;SDS011;52766;56.008;37.440;2023-01-13T21:02:50;20.30;;;7.85;;